createdAt,value
2019-02-16T00:00:03.145Z,0.97
2019-02-16T00:02:33.724Z,0.83
2019-02-16T00:05:04.536Z,1.23
2019-02-16T00:07:34.877Z,2.20
2019-02-16T00:10:05.414Z,1.27
2019-02-16T00:12:35.646Z,0.70
2019-02-16T00:15:06.133Z,1.10
2019-02-16T00:17:36.452Z,0.73
2019-02-16T00:20:06.811Z,1.23
2019-02-16T00:22:37.041Z,1.03
2019-02-16T00:25:07.598Z,0.70
2019-02-16T00:27:37.932Z,1.90
2019-02-16T00:30:08.195Z,1.50
2019-02-16T00:32:38.695Z,3.33
2019-02-16T00:35:09.010Z,0.87
2019-02-16T00:37:39.313Z,0.63
2019-02-16T00:40:09.766Z,0.63
2019-02-16T00:42:40.104Z,1.13
2019-02-16T00:45:10.340Z,1.17
2019-02-16T00:47:40.687Z,0.60
2019-02-16T00:50:11.730Z,0.63
2019-02-16T00:52:42.072Z,3.80
2019-02-16T00:55:12.318Z,1.00
2019-02-16T00:57:42.733Z,1.03
2019-02-16T01:00:13.360Z,1.00
2019-02-16T01:02:43.688Z,1.00
2019-02-16T01:05:13.960Z,3.30
2019-02-16T01:07:44.262Z,1.83
2019-02-16T01:10:14.812Z,1.03
2019-02-16T01:12:45.167Z,1.20
2019-02-16T01:15:15.424Z,1.87
2019-02-16T01:17:45.849Z,2.33
2019-02-16T01:20:16.085Z,1.90
2019-02-16T01:22:46.313Z,8.33
2019-02-16T01:25:16.633Z,1.43
2019-02-16T01:27:47.036Z,2.13
2019-02-16T01:30:17.277Z,4.90
2019-02-16T01:32:47.535Z,2.10
2019-02-16T01:35:17.871Z,2.77
2019-02-16T01:37:48.262Z,1.30
2019-02-16T01:40:18.502Z,0.97
2019-02-16T01:42:48.743Z,1.10
2019-02-16T01:45:19.071Z,0.70
2019-02-16T01:47:49.605Z,1.17
2019-02-16T01:50:19.925Z,0.70
2019-02-16T01:52:50.181Z,1.20
2019-02-16T01:55:20.525Z,1.10
2019-02-16T01:57:50.735Z,0.60
2019-02-16T02:00:21.138Z,1.33
2019-02-16T02:02:51.466Z,0.93
2019-02-16T02:05:21.878Z,0.70
2019-02-16T02:07:52.126Z,1.73
2019-02-16T02:10:22.568Z,0.53
2019-02-16T02:12:52.878Z,0.90
2019-02-16T02:15:23.092Z,1.10
2019-02-16T02:17:53.328Z,2.10
2019-02-16T02:20:24.547Z,0.60
2019-02-16T02:22:54.895Z,0.53
2019-02-16T02:25:25.135Z,0.50
2019-02-16T02:27:55.371Z,0.83
2019-02-16T02:30:25.712Z,0.60
2019-02-16T02:32:56.035Z,0.60
2019-02-16T02:35:26.265Z,0.73
2019-02-16T02:37:56.582Z,0.50
2019-02-16T02:40:26.820Z,0.93
2019-02-16T02:42:57.043Z,0.90
2019-02-16T02:45:27.381Z,4.63
2019-02-16T02:47:58.084Z,6.00
2019-02-16T02:50:28.468Z,1.70
2019-02-16T02:52:58.685Z,1.20
2019-02-16T02:55:29.117Z,1.30
2019-02-16T02:57:59.444Z,1.67
2019-02-16T03:00:29.739Z,1.23
2019-02-16T03:02:59.981Z,6.80
2019-02-16T03:05:30.387Z,3.57
2019-02-16T03:08:00.726Z,12.63
2019-02-16T03:10:30.960Z,12.07
2019-02-16T03:13:01.195Z,10.83
2019-02-16T03:15:31.628Z,3.50
2019-02-16T03:18:01.856Z,7.13
2019-02-16T03:20:32.188Z,4.10
2019-02-16T03:23:19.010Z,3.47
2019-02-16T03:26:15.108Z,4.60
2019-02-16T03:28:56.202Z,11.33
2019-02-16T03:32:14.747Z,9.43
2019-02-16T03:35:07.432Z,6.17
2019-02-16T03:37:59.349Z,12.00
2019-02-16T03:40:29.658Z,8.60
2019-02-16T03:43:00.007Z,5.13
2019-02-16T03:45:30.335Z,8.97
2019-02-16T03:48:00.551Z,16.17
2019-02-16T03:50:31.117Z,5.80
2019-02-16T03:53:01.567Z,5.10
2019-02-16T03:55:31.886Z,4.87
2019-02-16T03:58:02.236Z,19.63
2019-02-16T04:00:32.577Z,18.43
2019-02-16T04:03:02.822Z,12.87
2019-02-16T04:05:33.038Z,14.13
2019-02-16T04:08:03.378Z,33.20
2019-02-16T04:10:33.676Z,15.90
2019-02-16T04:13:04.067Z,29.97
2019-02-16T04:15:34.426Z,23.33
2019-02-16T04:18:04.783Z,26.77
2019-02-16T04:20:35.112Z,14.73
2019-02-16T04:23:05.352Z,19.17
2019-02-16T04:25:35.597Z,12.20
2019-02-16T04:28:05.935Z,13.30
2019-02-16T04:30:36.251Z,20.43
2019-02-16T04:33:06.481Z,36.60
2019-02-16T04:35:36.768Z,37.90
2019-02-16T04:38:07.117Z,24.20
2019-02-16T04:40:37.435Z,18.30
2019-02-16T04:43:07.733Z,13.23
2019-02-16T04:45:37.985Z,40.63
2019-02-16T04:48:08.323Z,50.30
2019-02-16T04:50:38.892Z,31.63
2019-02-16T04:53:09.208Z,29.03
2019-02-16T04:55:39.441Z,32.53
2019-02-16T04:58:09.868Z,23.40
2019-02-16T05:00:40.196Z,44.30
2019-02-16T05:03:10.429Z,17.93
2019-02-16T05:05:40.681Z,49.33
2019-02-16T05:08:11.018Z,64.77
2019-02-16T05:10:41.366Z,26.37
2019-02-16T05:13:11.585Z,9.50
2019-02-16T05:15:41.802Z,10.90
2019-02-16T05:18:12.131Z,7.90
2019-02-16T05:20:42.346Z,24.33
2019-02-16T05:23:12.692Z,25.80
2019-02-16T05:25:43.026Z,21.13
2019-02-16T05:28:13.267Z,23.83
2019-02-16T05:30:43.515Z,36.77
2019-02-16T05:33:13.842Z,16.93
2019-02-16T05:35:44.169Z,21.10
2019-02-16T05:38:14.400Z,43.80
2019-02-16T05:40:44.654Z,35.20
2019-02-16T05:43:15.014Z,50.50
2019-02-16T05:45:45.349Z,52.00
2019-02-16T05:48:15.591Z,44.00
2019-02-16T05:50:45.951Z,56.33
2019-02-16T05:53:16.289Z,40.57
2019-02-16T05:55:46.621Z,38.10
2019-02-16T05:58:16.846Z,37.93
2019-02-16T06:00:47.174Z,61.90
2019-02-16T06:03:17.424Z,53.20
2019-02-16T06:05:47.681Z,47.80
2019-02-16T06:08:18.005Z,80.00
2019-02-16T06:10:48.347Z,96.50
2019-02-16T06:13:18.594Z,80.20
2019-02-16T06:15:48.854Z,82.77
2019-02-16T06:18:19.238Z,67.03
2019-02-16T06:20:49.598Z,41.27
2019-02-16T06:23:19.847Z,55.20
2019-02-16T06:25:50.155Z,50.57
2019-02-16T06:28:20.478Z,48.87
2019-02-16T06:30:50.810Z,25.87
2019-02-16T06:33:21.041Z,33.50
2019-02-16T06:35:54.659Z,37.70
2019-02-16T06:38:25.006Z,21.17
2019-02-16T06:40:55.255Z,27.60
2019-02-16T06:43:25.632Z,22.20
2019-02-16T06:45:55.997Z,28.40
2019-02-16T06:48:26.259Z,34.47
2019-02-16T06:50:56.702Z,22.40
2019-02-16T06:53:27.290Z,19.93
2019-02-16T06:56:05.509Z,16.23
2019-02-16T06:58:35.753Z,12.70
2019-02-16T07:01:06.013Z,7.40
2019-02-16T07:03:36.555Z,4.63
2019-02-16T07:06:06.879Z,7.60
2019-02-16T07:08:37.102Z,5.53
2019-02-16T07:11:07.744Z,4.00
2019-02-16T07:13:38.119Z,5.77
2019-02-16T07:16:40.892Z,7.53
2019-02-16T07:19:20.299Z,4.00
2019-02-16T07:21:51.088Z,29.67
2019-02-16T07:24:21.441Z,82.60
2019-02-16T07:26:52.002Z,30.00
2019-02-16T07:29:22.476Z,4.30
2019-02-16T07:31:52.841Z,1.80
2019-02-16T07:34:23.173Z,8.23
2019-02-16T07:36:53.423Z,1.93
2019-02-16T07:39:23.814Z,20.23
2019-02-16T07:41:54.215Z,4.70
2019-02-16T07:44:46.065Z,5.27
2019-02-16T07:47:47.233Z,13.17
2019-02-16T07:50:45.295Z,9.60
2019-02-16T07:53:30.935Z,6.17
2019-02-16T07:56:00.010Z,7.83
2019-02-16T07:58:46.287Z,7.70
2019-02-16T08:01:35.472Z,4.40
2019-02-16T08:04:23.358Z,6.33
2019-02-16T08:09:56.899Z,2.17
2019-02-16T08:12:37.473Z,6.43
2019-02-16T08:15:35.855Z,11.47
2019-02-16T08:18:28.079Z,3.77
2019-02-16T08:21:20.147Z,2.43
2019-02-16T08:24:25.085Z,2.80
2019-02-16T08:27:14.107Z,5.23
2019-02-16T08:29:51.616Z,2.60
2019-02-16T08:32:43.767Z,3.80
2019-02-16T08:35:27.912Z,4.47
2019-02-16T08:38:29.472Z,3.23
2019-02-16T08:41:21.674Z,3.70
2019-02-16T08:44:15.359Z,8.37
2019-02-16T08:47:17.959Z,12.83
2019-02-16T08:50:07.641Z,2.70
2019-02-16T08:52:47.378Z,3.60
2019-02-16T08:55:42.692Z,1.70
2019-02-16T08:58:36.258Z,1.83
2019-02-16T09:01:29.523Z,1.70
2019-02-16T09:04:11.408Z,3.23
2019-02-16T09:06:59.555Z,2.10
2019-02-16T09:09:49.745Z,6.17
2019-02-16T09:12:29.385Z,4.00
2019-02-16T09:15:11.994Z,6.80
2019-02-16T09:18:09.556Z,7.37
2019-02-16T09:20:52.885Z,3.00
2019-02-16T09:23:42.565Z,4.10
2019-02-16T09:26:24.234Z,8.63
2019-02-16T09:29:10.036Z,8.00
2019-02-16T09:31:54.272Z,2.87
2019-02-16T09:34:31.953Z,3.27
2019-02-16T09:37:20.074Z,3.97
2019-02-16T09:40:09.806Z,2.20
2019-02-16T09:42:55.880Z,3.27
2019-02-16T09:45:44.857Z,3.97
2019-02-16T09:48:29.798Z,3.27
2019-02-16T09:51:25.088Z,17.73
2019-02-16T09:54:17.105Z,7.33
2019-02-16T09:56:55.756Z,5.67
2019-02-16T09:59:50.767Z,3.80
2019-02-16T10:02:36.552Z,2.80
2019-02-16T10:05:23.471Z,2.03
2019-02-16T10:08:13.572Z,4.47
2019-02-16T10:11:00.574Z,5.63
2019-02-16T10:13:48.913Z,7.00
2019-02-16T10:16:53.267Z,5.93
2019-02-16T10:19:42.303Z,5.70
2019-02-16T10:22:40.610Z,4.07
2019-02-16T10:25:28.410Z,6.80
2019-02-16T10:28:12.453Z,6.07
2019-02-16T10:30:47.682Z,4.53
2019-02-16T10:33:54.937Z,4.43
2019-02-16T10:36:44.037Z,3.17
2019-02-16T10:39:42.309Z,6.93
2019-02-16T10:42:20.837Z,5.57
2019-02-16T10:45:06.819Z,4.30
2019-02-16T10:47:58.770Z,4.03
2019-02-16T10:50:45.276Z,5.00
2019-02-16T10:53:37.052Z,5.57
2019-02-16T10:56:22.750Z,10.00
2019-02-16T10:59:10.511Z,6.53
2019-02-16T11:02:15.367Z,5.23
2019-02-16T11:05:22.519Z,8.47
2019-02-16T11:08:01.038Z,7.27
2019-02-16T11:10:50.422Z,8.33
2019-02-16T11:13:34.555Z,4.33
2019-02-16T11:16:16.274Z,5.37
2019-02-16T11:19:04.234Z,7.50
2019-02-16T11:22:11.705Z,6.37
2019-02-16T11:25:03.672Z,6.30
2019-02-16T11:27:51.657Z,7.30
2019-02-16T11:30:52.627Z,7.07
2019-02-16T11:33:41.654Z,10.00
2019-02-16T11:36:18.145Z,13.27
2019-02-16T11:39:11.207Z,11.60
2019-02-16T11:42:03.851Z,14.00
2019-02-16T11:44:52.306Z,10.63
2019-02-16T11:47:44.444Z,9.33
2019-02-16T11:50:25.292Z,8.10
2019-02-16T11:53:20.134Z,6.90
2019-02-16T11:56:00.046Z,6.30
2019-02-16T11:58:52.694Z,5.43
2019-02-16T12:01:40.908Z,5.30
2019-02-16T12:04:37.379Z,5.47
2019-02-16T12:07:21.217Z,6.17
2019-02-16T12:10:01.879Z,6.50
2019-02-16T12:13:00.065Z,7.23
2019-02-16T12:15:43.803Z,8.37
2019-02-16T12:18:39.828Z,18.80
2019-02-16T12:21:38.820Z,9.17
2019-02-16T12:24:37.517Z,9.37
2019-02-16T12:27:27.695Z,6.87
2019-02-16T12:30:26.486Z,7.00
2019-02-16T12:33:14.323Z,15.23
2019-02-16T12:36:10.244Z,7.77
2019-02-16T12:39:05.566Z,6.77
2019-02-16T12:42:03.835Z,7.40
2019-02-16T12:44:56.582Z,10.80
2019-02-16T12:47:46.566Z,7.80
2019-02-16T12:50:27.229Z,6.93
2019-02-16T12:53:16.502Z,8.27
2019-02-16T12:56:01.574Z,7.57
2019-02-16T12:58:39.566Z,11.50
2019-02-16T13:01:19.703Z,9.80
2019-02-16T13:04:07.670Z,6.70
2019-02-16T13:07:05.235Z,5.53
2019-02-16T13:09:42.517Z,6.00
2019-02-16T13:12:32.299Z,4.93
2019-02-16T13:15:11.325Z,4.50
2019-02-16T13:18:01.289Z,6.90
2019-02-16T13:20:40.007Z,6.23
2019-02-16T13:23:27.549Z,17.33
2019-02-16T13:26:22.549Z,5.20
2019-02-16T13:29:10.421Z,7.30
2019-02-16T13:31:59.472Z,5.10
2019-02-16T13:34:51.592Z,4.73
2019-02-16T13:37:37.762Z,4.70
2019-02-16T13:40:39.211Z,14.60
2019-02-16T13:43:27.151Z,7.10
2019-02-16T13:46:14.562Z,3.73
2019-02-16T13:48:52.888Z,5.13
2019-02-16T13:51:45.001Z,5.90
2019-02-16T13:54:36.821Z,5.80
2019-02-16T13:57:24.710Z,7.23
2019-02-16T14:00:01.360Z,6.40
2019-02-16T14:02:59.428Z,7.17
2019-02-16T14:05:45.711Z,8.70
2019-02-16T14:08:21.796Z,7.70
2019-02-16T14:11:10.664Z,3.80
2019-02-16T14:13:54.510Z,5.90
2019-02-16T14:16:42.566Z,8.03
2019-02-16T14:19:12.806Z,4.77
2019-02-16T14:21:43.151Z,6.43
2019-02-16T14:24:13.487Z,7.83
2019-02-16T14:26:43.815Z,5.80
2019-02-16T14:29:14.041Z,9.57
2019-02-16T14:31:44.355Z,4.77
2019-02-16T14:34:14.691Z,11.73
2019-02-16T14:36:46.495Z,28.17
2019-02-16T14:39:21.799Z,6.50
2019-02-16T14:41:52.032Z,5.30
2019-02-16T14:44:22.358Z,2.53
2019-02-16T14:46:52.599Z,3.30
2019-02-16T14:49:22.996Z,3.57
2019-02-16T14:51:53.331Z,4.10
2019-02-16T14:54:23.577Z,32.30
2019-02-16T14:56:53.850Z,12.60
2019-02-16T14:59:24.198Z,18.57
2019-02-16T15:01:55.029Z,25.73
2019-02-16T15:04:25.263Z,21.30
2019-02-16T15:06:55.497Z,7.00
2019-02-16T15:09:25.831Z,103.90
2019-02-16T15:11:56.619Z,111.93
2019-02-16T15:14:26.996Z,96.83
2019-02-16T15:16:57.229Z,94.00
2019-02-16T15:19:27.563Z,84.10
2019-02-16T15:21:57.998Z,135.00
2019-02-16T15:24:28.236Z,119.13
2019-02-16T15:26:58.586Z,115.03
2019-02-16T15:29:28.849Z,128.67
2019-02-16T15:31:59.106Z,124.87
2019-02-16T15:34:29.464Z,108.57
2019-02-16T15:36:59.821Z,154.73
2019-02-16T15:39:30.063Z,98.93
2019-02-16T15:42:00.301Z,88.07
2019-02-16T15:44:30.667Z,90.47
2019-02-16T15:47:01.026Z,60.20
2019-02-16T15:49:31.293Z,89.67
2019-02-16T15:52:01.545Z,82.57
2019-02-16T15:54:31.905Z,80.27
2019-02-16T15:57:02.282Z,52.87
2019-02-16T15:59:35.173Z,62.90
2019-02-16T16:02:04.558Z,75.97
2019-02-16T16:04:34.912Z,86.03
2019-02-16T16:07:06.927Z,73.50
2019-02-16T16:09:44.366Z,99.97
2019-02-16T16:12:43.101Z,84.20
2019-02-16T16:15:42.297Z,95.13
2019-02-16T16:18:24.363Z,147.03
2019-02-16T16:21:12.217Z,130.53
2019-02-16T16:23:59.948Z,79.40
2019-02-16T16:26:47.469Z,55.90
2019-02-16T16:29:51.975Z,34.43
2019-02-16T16:32:37.857Z,30.30
2019-02-16T16:35:34.330Z,37.93
2019-02-16T16:38:38.893Z,69.73
2019-02-16T16:41:25.150Z,131.83
2019-02-16T16:44:17.294Z,140.10
2019-02-16T16:47:09.455Z,138.03
2019-02-16T16:49:58.593Z,142.17
2019-02-16T16:52:47.637Z,79.03
2019-02-16T16:55:41.938Z,56.27
2019-02-16T16:58:45.101Z,93.20
2019-02-16T17:01:34.407Z,86.33
2019-02-16T17:04:21.351Z,69.43
2019-02-16T17:07:10.422Z,50.03
2019-02-16T17:09:51.292Z,43.23
2019-02-16T17:12:46.515Z,32.40
2019-02-16T17:15:34.618Z,101.87
2019-02-16T17:18:39.182Z,43.13
2019-02-16T17:21:28.301Z,56.77
2019-02-16T17:24:23.582Z,56.70
2019-02-16T17:27:31.143Z,50.70
2019-02-16T17:30:15.240Z,71.57
2019-02-16T17:33:07.317Z,37.90
2019-02-16T17:35:55.007Z,45.63
2019-02-16T17:38:47.094Z,73.03
2019-02-16T17:41:36.196Z,50.13
2019-02-16T17:44:24.147Z,66.07
2019-02-16T17:47:12.101Z,61.33
2019-02-16T17:50:05.666Z,49.43
2019-02-16T17:52:53.685Z,42.70
2019-02-16T17:55:42.826Z,54.17
2019-02-16T17:58:37.820Z,49.20
2019-02-16T18:01:39.197Z,31.03
2019-02-16T18:04:28.266Z,37.00
2019-02-16T18:07:20.102Z,72.73
2019-02-16T18:09:57.105Z,76.20
2019-02-16T18:12:46.426Z,117.80
2019-02-16T18:15:44.504Z,126.00
2019-02-16T18:18:20.475Z,153.60
2019-02-16T18:21:14.551Z,111.97
2019-02-16T18:24:03.607Z,49.27
2019-02-16T18:26:45.319Z,38.00
2019-02-16T18:29:34.412Z,49.20
2019-02-16T18:32:31.098Z,52.60
2019-02-16T18:35:22.043Z,95.63
2019-02-16T18:37:59.937Z,105.13
2019-02-16T18:40:45.607Z,124.30
2019-02-16T18:43:44.037Z,156.73
2019-02-16T18:46:39.201Z,124.87
2019-02-16T18:49:28.255Z,54.83
2019-02-16T18:52:08.114Z,61.93
2019-02-16T18:54:56.084Z,68.47
2019-02-16T18:57:45.126Z,56.07
2019-02-16T19:00:37.189Z,53.13
2019-02-16T19:03:35.706Z,40.20
2019-02-16T19:06:40.076Z,36.07
2019-02-16T19:09:22.746Z,107.03
2019-02-16T19:12:21.201Z,102.90
2019-02-16T19:15:01.416Z,77.47
2019-02-16T19:17:38.765Z,58.87
2019-02-16T19:20:17.596Z,52.23
2019-02-16T19:23:05.353Z,53.63
2019-02-16T19:25:57.311Z,52.60
2019-02-16T19:28:39.064Z,51.00
2019-02-16T19:31:43.250Z,41.17
2019-02-16T19:34:35.179Z,38.50
2019-02-16T19:37:27.058Z,55.93
2019-02-16T19:40:16.147Z,64.67
2019-02-16T19:43:05.572Z,38.77
2019-02-16T19:45:58.646Z,46.57
2019-02-16T19:48:46.527Z,49.50
2019-02-16T19:51:50.753Z,45.50
2019-02-16T19:54:51.974Z,51.07
2019-02-16T19:57:39.944Z,43.07
2019-02-16T20:00:28.916Z,37.20
2019-02-16T20:03:21.056Z,39.90
2019-02-16T20:06:22.575Z,44.00
2019-02-16T20:09:20.762Z,41.10
2019-02-16T20:12:16.321Z,37.13
2019-02-16T20:15:08.701Z,27.73
2019-02-16T20:17:55.389Z,44.93
2019-02-16T20:20:39.510Z,54.60
2019-02-16T20:23:27.443Z,57.43
2019-02-16T20:26:31.590Z,36.43
2019-02-16T20:29:24.022Z,37.57
2019-02-16T20:32:05.976Z,47.10
2019-02-16T20:35:10.251Z,83.50
2019-02-16T20:38:02.431Z,32.40
2019-02-16T20:40:36.972Z,55.60
2019-02-16T20:43:29.266Z,38.47
2019-02-16T20:46:33.629Z,34.27
2019-02-16T20:49:40.897Z,35.80
2019-02-16T20:52:28.834Z,17.27
2019-02-16T20:55:06.755Z,31.50
2019-02-16T20:57:58.944Z,29.03
2019-02-16T21:00:48.025Z,38.30
2019-02-16T21:03:28.419Z,35.60
2019-02-16T21:06:17.499Z,37.63
2019-02-16T21:08:56.030Z,56.83
2019-02-16T21:11:43.521Z,44.33
2019-02-16T21:14:28.699Z,25.70
2019-02-16T21:17:17.797Z,43.30
2019-02-16T21:20:16.241Z,37.70
2019-02-16T21:23:03.965Z,41.47
2019-02-16T21:25:56.066Z,28.73
2019-02-16T21:28:45.141Z,36.77
2019-02-16T21:31:49.402Z,43.23
2019-02-16T21:34:47.512Z,35.57
2019-02-16T21:37:44.324Z,66.67
2019-02-16T21:40:25.282Z,59.13
2019-02-16T21:43:15.879Z,67.70
2019-02-16T21:46:03.679Z,74.97
2019-02-16T21:48:58.817Z,69.90
2019-02-16T21:51:44.406Z,58.97
2019-02-16T21:54:39.406Z,56.77
2019-02-16T21:57:37.622Z,53.90
2019-02-16T22:00:38.007Z,54.07
2019-02-16T22:03:25.890Z,41.53
2019-02-16T22:06:20.958Z,51.90
2019-02-16T22:09:25.421Z,36.37
2019-02-16T22:12:17.101Z,45.33
2019-02-16T22:14:47.746Z,40.67
2019-02-16T22:17:18.148Z,34.10
2019-02-16T22:19:48.459Z,35.17
2019-02-16T22:22:19.071Z,33.80
2019-02-16T22:24:49.640Z,40.20
2019-02-16T22:27:20.151Z,57.53
2019-02-16T22:29:50.826Z,38.63
2019-02-16T22:32:21.439Z,37.10
2019-02-16T22:34:52.023Z,47.30
2019-02-16T22:37:22.533Z,43.93
2019-02-16T22:39:53.077Z,46.63
2019-02-16T22:42:23.971Z,35.80
2019-02-16T22:44:54.523Z,35.33
2019-02-16T22:47:25.047Z,33.07
2019-02-16T22:49:55.805Z,37.70
2019-02-16T22:52:26.367Z,37.27
2019-02-16T22:54:56.953Z,29.60
2019-02-16T22:57:27.542Z,33.20
2019-02-16T22:59:58.074Z,30.43
2019-02-16T23:02:28.542Z,26.93
2019-02-16T23:04:59.023Z,22.27
2019-02-16T23:07:29.453Z,16.77
2019-02-16T23:09:59.918Z,33.03
2019-02-16T23:12:30.278Z,35.80
2019-02-16T23:15:00.682Z,37.27
2019-02-16T23:17:31.028Z,38.97
2019-02-16T23:20:01.314Z,13.70
2019-02-16T23:22:31.533Z,30.60
2019-02-16T23:25:01.816Z,34.13
2019-02-16T23:27:32.152Z,27.37
2019-02-16T23:30:02.442Z,34.10
2019-02-16T23:32:32.730Z,47.73
2019-02-16T23:35:03.003Z,41.90
2019-02-16T23:37:33.257Z,15.00
2019-02-16T23:40:03.557Z,11.40
2019-02-16T23:42:33.990Z,23.80
2019-02-16T23:45:04.273Z,19.17
2019-02-16T23:47:34.500Z,11.57
2019-02-16T23:50:05.085Z,15.30
2019-02-16T23:52:35.407Z,17.03
2019-02-16T23:55:05.902Z,25.67
2019-02-16T23:57:36.138Z,19.27
